Abbott Park, Illinois
Current Conditions -  °F | °C
As of 1:55 AM on Saturday 01 Nov 2014 (Local Time) from KUGN Reporting Station
Overcast Overcast  
Wind Chill: -3°   Ceiling: 3900
Heat Index:   Visibility: 10mi
Dew Point: -6°   Wind: 9mph
Humidity: 61%   Direction: 330°NNW
Pressure: 30.35"   Gusts: 18mph
Location:  42.3271°N, 87.865°W
Report Text: KUGN 010655Z AUTO 33008G16KT 10SM OVC039 01/M06 A3035 RMK AO2 SLP288 T00111056
Loading
Personal Weather Stations






























Interactive Weather Map
Tropical Storm Tracking
New forecast layout! Learn more

10-Day Weather Forecast

Advertisements
Track Severe Weather on mobile